sensor_id;sensor_type;location;lat;lon;timestamp;temperature;humidity
7000;DHT22;3540;53.242;10.408;2023-02-28T00:00:19;-2.50;99.90
7000;DHT22;3540;53.242;10.408;2023-02-28T00:02:45;-2.50;99.90
7000;DHT22;3540;53.242;10.408;2023-02-28T00:05:13;-2.60;99.90
7000;DHT22;3540;53.242;10.408;2023-02-28T00:07:38;-2.60;99.90
7000;DHT22;3540;53.242;10.408;2023-02-28T00:10:05;-2.60;99.90
7000;DHT22;3540;53.242;10.408;2023-02-28T00:12:33;-2.60;99.90
7000;DHT22;3540;53.242;10.408;2023-02-28T00:14:59;-2.60;99.90
7000;DHT22;3540;53.242;10.408;2023-02-28T00:17:25;-2.60;99.90
7000;DHT22;3540;53.242;10.408;2023-02-28T00:19:51;-2.70;99.90
7000;DHT22;3540;53.242;10.408;2023-02-28T00:22:18;-2.70;99.90
7000;DHT22;3540;53.242;10.408;2023-02-28T00:24:44;-2.70;99.90
7000;DHT22;3540;53.242;10.408;2023-02-28T00:27:10;-2.70;99.90
7000;DHT22;3540;53.242;10.408;2023-02-28T00:29:36;-2.70;99.90
7000;DHT22;3540;53.242;10.408;2023-02-28T00:32:01;-2.70;99.90
7000;DHT22;3540;53.242;10.408;2023-02-28T00:34:27;-2.70;99.90
7000;DHT22;3540;53.242;10.408;2023-02-28T00:36:53;-2.70;99.90
7000;DHT22;3540;53.242;10.408;2023-02-28T00:39:19;-2.60;99.90
7000;DHT22;3540;53.242;10.408;2023-02-28T00:41:44;-2.70;99.90
7000;DHT22;3540;53.242;10.408;2023-02-28T00:44:11;-2.70;99.90
7000;DHT22;3540;53.242;10.408;2023-02-28T00:46:36;-2.70;99.90
7000;DHT22;3540;53.242;10.408;2023-02-28T00:49:02;-2.70;99.90
7000;DHT22;3540;53.242;10.408;2023-02-28T00:51:28;-2.80;99.90
7000;DHT22;3540;53.242;10.408;2023-02-28T00:53:54;-2.80;99.90
7000;DHT22;3540;53.242;10.408;2023-02-28T00:56:20;-2.80;99.90
7000;DHT22;3540;53.242;10.408;2023-02-28T00:58:45;-2.80;99.90
7000;DHT22;3540;53.242;10.408;2023-02-28T01:01:11;-2.80;99.90
7000;DHT22;3540;53.242;10.408;2023-02-28T01:03:37;-2.80;99.90
7000;DHT22;3540;53.242;10.408;2023-02-28T01:06:04;-2.80;99.90
7000;DHT22;3540;53.242;10.408;2023-02-28T01:08:29;-2.70;99.90
7000;DHT22;3540;53.242;10.408;2023-02-28T01:10:55;-2.60;99.90
7000;DHT22;3540;53.242;10.408;2023-02-28T01:13:21;-2.60;99.90
7000;DHT22;3540;53.242;10.408;2023-02-28T01:15:54;-2.60;99.90
7000;DHT22;3540;53.242;10.408;2023-02-28T01:18:20;-2.50;99.90
7000;DHT22;3540;53.242;10.408;2023-02-28T01:20:46;-2.50;99.90
7000;DHT22;3540;53.242;10.408;2023-02-28T01:23:12;-2.40;99.90
7000;DHT22;3540;53.242;10.408;2023-02-28T01:25:38;-2.40;99.90
7000;DHT22;3540;53.242;10.408;2023-02-28T01:28:04;-2.40;99.90
7000;DHT22;3540;53.242;10.408;2023-02-28T01:30:30;-2.50;99.90
7000;DHT22;3540;53.242;10.408;2023-02-28T01:32:56;-2.50;99.90
7000;DHT22;3540;53.242;10.408;2023-02-28T01:35:21;-2.50;99.90
7000;DHT22;3540;53.242;10.408;2023-02-28T01:37:47;-2.50;99.90
7000;DHT22;3540;53.242;10.408;2023-02-28T01:40:13;-2.60;99.90
7000;DHT22;3540;53.242;10.408;2023-02-28T01:42:39;-2.60;99.90
7000;DHT22;3540;53.242;10.408;2023-02-28T01:45:25;-2.70;99.90
7000;DHT22;3540;53.242;10.408;2023-02-28T01:47:54;-2.80;99.90
7000;DHT22;3540;53.242;10.408;2023-02-28T01:50:23;-2.80;99.90
7000;DHT22;3540;53.242;10.408;2023-02-28T01:52:50;-2.90;99.90
7000;DHT22;3540;53.242;10.408;2023-02-28T01:55:19;-3.00;99.90
7000;DHT22;3540;53.242;10.408;2023-02-28T01:57:57;-2.90;99.90
7000;DHT22;3540;53.242;10.408;2023-02-28T02:00:25;-3.00;99.90
7000;DHT22;3540;53.242;10.408;2023-02-28T02:02:57;-3.00;99.90
7000;DHT22;3540;53.242;10.408;2023-02-28T02:05:29;-3.10;99.90
7000;DHT22;3540;53.242;10.408;2023-02-28T02:08:00;-3.10;99.90
7000;DHT22;3540;53.242;10.408;2023-02-28T02:10:36;-3.10;99.90
7000;DHT22;3540;53.242;10.408;2023-02-28T02:13:19;-3.20;99.90
7000;DHT22;3540;53.242;10.408;2023-02-28T02:18:57;-3.30;99.90
7000;DHT22;3540;53.242;10.408;2023-02-28T02:39:10;-3.40;99.90
7000;DHT22;3540;53.242;10.408;2023-02-28T02:41:56;-3.40;99.90
7000;DHT22;3540;53.242;10.408;2023-02-28T02:44:43;-3.50;99.90
7000;DHT22;3540;53.242;10.408;2023-02-28T02:47:15;-3.50;99.90
7000;DHT22;3540;53.242;10.408;2023-02-28T02:49:49;-3.50;99.90
7000;DHT22;3540;53.242;10.408;2023-02-28T02:52:18;-3.50;99.90
7000;DHT22;3540;53.242;10.408;2023-02-28T02:54:48;-3.50;99.90
7000;DHT22;3540;53.242;10.408;2023-02-28T02:57:22;-3.50;99.90
7000;DHT22;3540;53.242;10.408;2023-02-28T02:59:49;-3.60;99.90
7000;DHT22;3540;53.242;10.408;2023-02-28T03:02:17;-3.60;99.90
7000;DHT22;3540;53.242;10.408;2023-02-28T03:04:52;-3.70;99.90
7000;DHT22;3540;53.242;10.408;2023-02-28T03:07:19;-3.80;99.90
7000;DHT22;3540;53.242;10.408;2023-02-28T03:09:52;-3.80;99.90
7000;DHT22;3540;53.242;10.408;2023-02-28T03:12:18;-3.70;99.90
7000;DHT22;3540;53.242;10.408;2023-02-28T03:14:56;-3.70;99.90
7000;DHT22;3540;53.242;10.408;2023-02-28T03:17:30;-3.70;99.90
7000;DHT22;3540;53.242;10.408;2023-02-28T03:25:35;-3.90;99.90
7000;DHT22;3540;53.242;10.408;2023-02-28T03:30:52;-3.90;99.90
7000;DHT22;3540;53.242;10.408;2023-02-28T03:33:21;-3.80;99.90
7000;DHT22;3540;53.242;10.408;2023-02-28T03:36:02;-3.80;99.90
7000;DHT22;3540;53.242;10.408;2023-02-28T03:38:54;-3.90;99.90
7000;DHT22;3540;53.242;10.408;2023-02-28T03:41:38;-3.90;99.90
7000;DHT22;3540;53.242;10.408;2023-02-28T03:44:10;-4.00;99.90
7000;DHT22;3540;53.242;10.408;2023-02-28T03:46:47;-4.00;99.90
7000;DHT22;3540;53.242;10.408;2023-02-28T03:49:22;-4.00;99.90
7000;DHT22;3540;53.242;10.408;2023-02-28T03:51:50;-4.00;99.90
7000;DHT22;3540;53.242;10.408;2023-02-28T03:54:20;-4.00;99.90
7000;DHT22;3540;53.242;10.408;2023-02-28T03:57:06;-4.00;99.90
7000;DHT22;3540;53.242;10.408;2023-02-28T03:59:59;-4.00;99.90
7000;DHT22;3540;53.242;10.408;2023-02-28T04:02:26;-4.00;99.90
7000;DHT22;3540;53.242;10.408;2023-02-28T04:04:52;-3.90;99.90
7000;DHT22;3540;53.242;10.408;2023-02-28T04:07:19;-4.00;99.90
7000;DHT22;3540;53.242;10.408;2023-02-28T04:09:44;-4.00;99.90
7000;DHT22;3540;53.242;10.408;2023-02-28T04:12:10;-4.00;99.90
7000;DHT22;3540;53.242;10.408;2023-02-28T04:14:36;-4.10;99.90
7000;DHT22;3540;53.242;10.408;2023-02-28T04:17:02;-4.10;99.90
7000;DHT22;3540;53.242;10.408;2023-02-28T04:19:27;-4.10;99.90
7000;DHT22;3540;53.242;10.408;2023-02-28T04:21:54;-4.10;99.90
7000;DHT22;3540;53.242;10.408;2023-02-28T04:24:25;-4.10;99.90
7000;DHT22;3540;53.242;10.408;2023-02-28T04:26:53;-4.10;99.90
7000;DHT22;3540;53.242;10.408;2023-02-28T04:29:27;-4.20;99.90
7000;DHT22;3540;53.242;10.408;2023-02-28T04:31:54;-4.20;99.90
7000;DHT22;3540;53.242;10.408;2023-02-28T04:34:20;-4.20;99.90
7000;DHT22;3540;53.242;10.408;2023-02-28T04:36:47;-4.20;99.90
7000;DHT22;3540;53.242;10.408;2023-02-28T04:39:15;-4.20;99.90
7000;DHT22;3540;53.242;10.408;2023-02-28T04:41:41;-4.20;99.90
7000;DHT22;3540;53.242;10.408;2023-02-28T04:44:06;-4.20;99.90
7000;DHT22;3540;53.242;10.408;2023-02-28T04:46:32;-4.20;99.90
7000;DHT22;3540;53.242;10.408;2023-02-28T04:48:58;-4.30;99.90
7000;DHT22;3540;53.242;10.408;2023-02-28T04:51:24;-4.30;99.90
7000;DHT22;3540;53.242;10.408;2023-02-28T04:53:50;-4.30;99.90
7000;DHT22;3540;53.242;10.408;2023-02-28T04:56:16;-4.40;99.90
7000;DHT22;3540;53.242;10.408;2023-02-28T04:58:43;-4.30;99.90
7000;DHT22;3540;53.242;10.408;2023-02-28T05:01:27;-4.40;99.90
7000;DHT22;3540;53.242;10.408;2023-02-28T05:03:55;-4.40;99.90
7000;DHT22;3540;53.242;10.408;2023-02-28T05:06:22;-4.40;99.90
7000;DHT22;3540;53.242;10.408;2023-02-28T05:08:49;-4.50;99.90
7000;DHT22;3540;53.242;10.408;2023-02-28T05:11:18;-4.50;99.90
7000;DHT22;3540;53.242;10.408;2023-02-28T05:13:46;-4.50;99.90
7000;DHT22;3540;53.242;10.408;2023-02-28T05:16:12;-4.50;99.90
7000;DHT22;3540;53.242;10.408;2023-02-28T05:18:38;-4.50;99.90
7000;DHT22;3540;53.242;10.408;2023-02-28T05:21:04;-4.50;99.90
7000;DHT22;3540;53.242;10.408;2023-02-28T05:23:30;-4.50;99.90
7000;DHT22;3540;53.242;10.408;2023-02-28T05:25:56;-4.50;99.90
7000;DHT22;3540;53.242;10.408;2023-02-28T05:28:22;-4.50;99.90
7000;DHT22;3540;53.242;10.408;2023-02-28T05:30:48;-4.50;99.90
7000;DHT22;3540;53.242;10.408;2023-02-28T05:33:14;-4.50;99.90
7000;DHT22;3540;53.242;10.408;2023-02-28T05:35:41;-4.50;99.90
7000;DHT22;3540;53.242;10.408;2023-02-28T05:38:08;-4.50;99.90
7000;DHT22;3540;53.242;10.408;2023-02-28T05:40:34;-4.60;99.90
7000;DHT22;3540;53.242;10.408;2023-02-28T05:43:00;-4.70;99.90
7000;DHT22;3540;53.242;10.408;2023-02-28T05:45:25;-4.70;99.90
7000;DHT22;3540;53.242;10.408;2023-02-28T05:47:54;-4.60;99.90
7000;DHT22;3540;53.242;10.408;2023-02-28T05:50:20;-4.60;99.90
7000;DHT22;3540;53.242;10.408;2023-02-28T05:52:50;-4.60;99.90
7000;DHT22;3540;53.242;10.408;2023-02-28T05:55:15;-4.70;99.90
7000;DHT22;3540;53.242;10.408;2023-02-28T05:57:41;-4.70;99.90
7000;DHT22;3540;53.242;10.408;2023-02-28T06:00:08;-4.70;99.90
7000;DHT22;3540;53.242;10.408;2023-02-28T06:02:34;-4.80;99.90
7000;DHT22;3540;53.242;10.408;2023-02-28T06:04:59;-4.80;99.90
7000;DHT22;3540;53.242;10.408;2023-02-28T06:07:25;-4.80;99.90
7000;DHT22;3540;53.242;10.408;2023-02-28T06:09:50;-4.80;99.90
7000;DHT22;3540;53.242;10.408;2023-02-28T06:12:16;-4.80;99.90
7000;DHT22;3540;53.242;10.408;2023-02-28T06:14:43;-4.70;99.90
7000;DHT22;3540;53.242;10.408;2023-02-28T06:17:09;-4.70;99.90
7000;DHT22;3540;53.242;10.408;2023-02-28T06:19:37;-4.60;99.90
7000;DHT22;3540;53.242;10.408;2023-02-28T06:22:04;-4.60;99.90
7000;DHT22;3540;53.242;10.408;2023-02-28T06:24:30;-4.60;99.90
7000;DHT22;3540;53.242;10.408;2023-02-28T06:26:56;-4.70;99.90
7000;DHT22;3540;53.242;10.408;2023-02-28T06:29:24;-4.60;99.90
7000;DHT22;3540;53.242;10.408;2023-02-28T06:31:50;-4.60;99.90
7000;DHT22;3540;53.242;10.408;2023-02-28T06:34:16;-4.60;99.90
7000;DHT22;3540;53.242;10.408;2023-02-28T06:36:42;-4.60;99.90
7000;DHT22;3540;53.242;10.408;2023-02-28T06:39:08;-4.60;99.90
7000;DHT22;3540;53.242;10.408;2023-02-28T06:41:34;-4.60;99.90
7000;DHT22;3540;53.242;10.408;2023-02-28T06:44:04;-4.50;99.90
7000;DHT22;3540;53.242;10.408;2023-02-28T06:46:31;-4.40;99.90
7000;DHT22;3540;53.242;10.408;2023-02-28T06:48:57;-4.40;99.90
7000;DHT22;3540;53.242;10.408;2023-02-28T06:51:23;-4.40;99.90
7000;DHT22;3540;53.242;10.408;2023-02-28T06:53:50;-4.30;99.90
7000;DHT22;3540;53.242;10.408;2023-02-28T06:56:16;-4.30;99.90
7000;DHT22;3540;53.242;10.408;2023-02-28T06:58:49;-4.20;99.90
7000;DHT22;3540;53.242;10.408;2023-02-28T07:01:15;-4.10;99.90
7000;DHT22;3540;53.242;10.408;2023-02-28T07:03:42;-4.10;99.90
7000;DHT22;3540;53.242;10.408;2023-02-28T07:06:08;-4.00;99.90
7000;DHT22;3540;53.242;10.408;2023-02-28T07:08:34;-3.90;99.90
7000;DHT22;3540;53.242;10.408;2023-02-28T07:11:01;-3.90;99.90
7000;DHT22;3540;53.242;10.408;2023-02-28T07:13:27;-3.80;99.90
7000;DHT22;3540;53.242;10.408;2023-02-28T07:15:57;-3.70;99.90
7000;DHT22;3540;53.242;10.408;2023-02-28T07:18:23;-3.60;99.90
7000;DHT22;3540;53.242;10.408;2023-02-28T07:20:49;-3.50;99.90
7000;DHT22;3540;53.242;10.408;2023-02-28T07:23:15;-3.40;99.90
7000;DHT22;3540;53.242;10.408;2023-02-28T07:25:41;-3.40;99.90
7000;DHT22;3540;53.242;10.408;2023-02-28T07:28:06;-3.30;99.90
7000;DHT22;3540;53.242;10.408;2023-02-28T07:30:32;-3.20;99.90
7000;DHT22;3540;53.242;10.408;2023-02-28T07:32:57;-3.10;99.90
7000;DHT22;3540;53.242;10.408;2023-02-28T07:35:23;-2.90;99.90
7000;DHT22;3540;53.242;10.408;2023-02-28T07:37:49;-2.80;99.90
7000;DHT22;3540;53.242;10.408;2023-02-28T07:40:15;-2.70;99.90
7000;DHT22;3540;53.242;10.408;2023-02-28T07:42:41;-2.60;99.90
7000;DHT22;3540;53.242;10.408;2023-02-28T07:45:08;-2.50;56.10
7000;DHT22;3540;53.242;10.408;2023-02-28T07:47:39;-2.30;1.00
7000;DHT22;3540;53.242;10.408;2023-02-28T07:50:07;-2.30;99.90
7000;DHT22;3540;53.242;10.408;2023-02-28T07:52:34;-2.10;1.00
7000;DHT22;3540;53.242;10.408;2023-02-28T07:55:00;-2.00;99.90
7000;DHT22;3540;53.242;10.408;2023-02-28T07:57:25;-1.90;99.90
7000;DHT22;3540;53.242;10.408;2023-02-28T07:59:51;-1.70;1.00
7000;DHT22;3540;53.242;10.408;2023-02-28T08:02:18;-1.60;13.10
7000;DHT22;3540;53.242;10.408;2023-02-28T08:04:44;-1.40;1.00
7000;DHT22;3540;53.242;10.408;2023-02-28T08:07:11;-1.30;1.00
7000;DHT22;3540;53.242;10.408;2023-02-28T08:09:39;-1.20;1.00
7000;DHT22;3540;53.242;10.408;2023-02-28T08:12:05;-1.10;99.90
7000;DHT22;3540;53.242;10.408;2023-02-28T08:14:31;-1.00;59.10
7000;DHT22;3540;53.242;10.408;2023-02-28T08:17:00;-0.90;1.00
7000;DHT22;3540;53.242;10.408;2023-02-28T08:19:25;-0.70;1.00
7000;DHT22;3540;53.242;10.408;2023-02-28T08:21:51;-0.60;1.00
7000;DHT22;3540;53.242;10.408;2023-02-28T08:24:17;-0.50;1.00
7000;DHT22;3540;53.242;10.408;2023-02-28T08:26:43;-0.40;99.90
7000;DHT22;3540;53.242;10.408;2023-02-28T08:29:09;-0.20;99.90
7000;DHT22;3540;53.242;10.408;2023-02-28T08:31:34;-0.10;99.90
7000;DHT22;3540;53.242;10.408;2023-02-28T08:34:08;0.10;9.60
7000;DHT22;3540;53.242;10.408;2023-02-28T08:36:34;0.20;1.00
7000;DHT22;3540;53.242;10.408;2023-02-28T08:39:00;0.30;1.00
7000;DHT22;3540;53.242;10.408;2023-02-28T08:41:26;0.40;1.00
7000;DHT22;3540;53.242;10.408;2023-02-28T08:43:52;0.50;1.00
7000;DHT22;3540;53.242;10.408;2023-02-28T08:46:19;0.60;1.00
7000;DHT22;3540;53.242;10.408;2023-02-28T08:48:45;0.80;1.00
7000;DHT22;3540;53.242;10.408;2023-02-28T08:51:14;0.90;1.00
7000;DHT22;3540;53.242;10.408;2023-02-28T08:53:41;1.00;1.00
7000;DHT22;3540;53.242;10.408;2023-02-28T08:56:10;1.10;1.00
7000;DHT22;3540;53.242;10.408;2023-02-28T08:58:36;1.20;1.00
7000;DHT22;3540;53.242;10.408;2023-02-28T09:01:12;1.40;99.90
7000;DHT22;3540;53.242;10.408;2023-02-28T09:03:38;1.60;99.90
7000;DHT22;3540;53.242;10.408;2023-02-28T09:06:04;1.70;99.90
7000;DHT22;3540;53.242;10.408;2023-02-28T09:08:30;1.80;99.90
7000;DHT22;3540;53.242;10.408;2023-02-28T09:10:57;1.90;99.90
7000;DHT22;3540;53.242;10.408;2023-02-28T09:13:24;2.10;99.90
7000;DHT22;3540;53.242;10.408;2023-02-28T09:15:50;2.20;99.90
7000;DHT22;3540;53.242;10.408;2023-02-28T09:18:15;2.30;99.90
7000;DHT22;3540;53.242;10.408;2023-02-28T09:20:43;2.40;99.90
7000;DHT22;3540;53.242;10.408;2023-02-28T09:23:12;2.50;99.90
7000;DHT22;3540;53.242;10.408;2023-02-28T09:25:49;2.70;93.20
7000;DHT22;3540;53.242;10.408;2023-02-28T09:28:15;2.80;58.00
7000;DHT22;3540;53.242;10.408;2023-02-28T09:30:41;3.00;14.90
7000;DHT22;3540;53.242;10.408;2023-02-28T09:33:07;3.10;99.90
7000;DHT22;3540;53.242;10.408;2023-02-28T09:35:33;3.20;99.90
7000;DHT22;3540;53.242;10.408;2023-02-28T09:37:59;3.40;99.90
7000;DHT22;3540;53.242;10.408;2023-02-28T09:40:25;3.50;99.90
7000;DHT22;3540;53.242;10.408;2023-02-28T09:42:54;3.60;99.90
7000;DHT22;3540;53.242;10.408;2023-02-28T09:45:33;3.80;99.90
7000;DHT22;3540;53.242;10.408;2023-02-28T09:48:03;3.70;99.90
7000;DHT22;3540;53.242;10.408;2023-02-28T09:50:40;3.90;99.90
7000;DHT22;3540;53.242;10.408;2023-02-28T09:53:16;4.10;99.90
7000;DHT22;3540;53.242;10.408;2023-02-28T09:55:51;4.00;99.90
7000;DHT22;3540;53.242;10.408;2023-02-28T10:04:53;4.40;1.00
7000;DHT22;3540;53.242;10.408;2023-02-28T10:07:40;4.50;1.00
7000;DHT22;3540;53.242;10.408;2023-02-28T10:10:42;4.60;1.00
7000;DHT22;3540;53.242;10.408;2023-02-28T10:15:52;4.80;1.00
7000;DHT22;3540;53.242;10.408;2023-02-28T10:18:23;4.90;1.00
7000;DHT22;3540;53.242;10.408;2023-02-28T10:20:51;5.00;1.00
7000;DHT22;3540;53.242;10.408;2023-02-28T10:23:36;5.10;1.00
7000;DHT22;3540;53.242;10.408;2023-02-28T10:26:12;4.90;1.00
7000;DHT22;3540;53.242;10.408;2023-02-28T10:28:38;4.90;1.00
7000;DHT22;3540;53.242;10.408;2023-02-28T10:31:04;5.10;1.00
7000;DHT22;3540;53.242;10.408;2023-02-28T10:33:34;5.20;1.00
7000;DHT22;3540;53.242;10.408;2023-02-28T10:36:01;5.30;1.00
7000;DHT22;3540;53.242;10.408;2023-02-28T10:38:38;5.20;1.00
7000;DHT22;3540;53.242;10.408;2023-02-28T10:41:08;5.30;1.00
7000;DHT22;3540;53.242;10.408;2023-02-28T10:43:36;5.40;1.00
7000;DHT22;3540;53.242;10.408;2023-02-28T10:46:12;5.40;1.00
7000;DHT22;3540;53.242;10.408;2023-02-28T10:49:06;5.50;1.00
7000;DHT22;3540;53.242;10.408;2023-02-28T10:51:39;5.60;1.00
7000;DHT22;3540;53.242;10.408;2023-02-28T10:54:05;5.70;1.00
7000;DHT22;3540;53.242;10.408;2023-02-28T10:56:39;5.50;1.00
7000;DHT22;3540;53.242;10.408;2023-02-28T11:01:42;5.30;1.00
7000;DHT22;3540;53.242;10.408;2023-02-28T11:06:48;5.50;1.00
7000;DHT22;3540;53.242;10.408;2023-02-28T11:09:31;5.80;1.00
7000;DHT22;3540;53.242;10.408;2023-02-28T11:11:58;5.70;1.00
7000;DHT22;3540;53.242;10.408;2023-02-28T11:14:32;5.40;1.00
7000;DHT22;3540;53.242;10.408;2023-02-28T11:17:11;5.20;1.00
7000;DHT22;3540;53.242;10.408;2023-02-28T11:19:45;5.60;1.00
7000;DHT22;3540;53.242;10.408;2023-02-28T11:22:18;5.70;1.00
7000;DHT22;3540;53.242;10.408;2023-02-28T11:24:47;5.80;1.00
7000;DHT22;3540;53.242;10.408;2023-02-28T11:30:03;5.70;1.00
7000;DHT22;3540;53.242;10.408;2023-02-28T11:32:30;5.80;1.00
7000;DHT22;3540;53.242;10.408;2023-02-28T11:37:38;5.30;1.00
7000;DHT22;3540;53.242;10.408;2023-02-28T11:46:37;6.20;1.00
7000;DHT22;3540;53.242;10.408;2023-02-28T11:49:14;6.40;1.00
7000;DHT22;3540;53.242;10.408;2023-02-28T11:52:06;6.10;1.00
7000;DHT22;3540;53.242;10.408;2023-02-28T12:10:50;6.80;1.00
7000;DHT22;3540;53.242;10.408;2023-02-28T12:13:26;6.20;99.90
7000;DHT22;3540;53.242;10.408;2023-02-28T12:21:54;6.50;99.90
7000;DHT22;3540;53.242;10.408;2023-02-28T12:27:19;6.50;99.90
7000;DHT22;3540;53.242;10.408;2023-02-28T12:30:03;6.70;99.90
7000;DHT22;3540;53.242;10.408;2023-02-28T12:32:42;6.40;99.90
7000;DHT22;3540;53.242;10.408;2023-02-28T12:37:51;6.30;99.90
7000;DHT22;3540;53.242;10.408;2023-02-28T12:40:27;6.40;99.90
7000;DHT22;3540;53.242;10.408;2023-02-28T12:43:02;6.50;99.90
7000;DHT22;3540;53.242;10.408;2023-02-28T12:45:49;6.30;99.90
7000;DHT22;3540;53.242;10.408;2023-02-28T12:48:23;6.50;99.90
7000;DHT22;3540;53.242;10.408;2023-02-28T12:50:50;6.60;99.90
7000;DHT22;3540;53.242;10.408;2023-02-28T12:56:28;6.50;99.90
7000;DHT22;3540;53.242;10.408;2023-02-28T12:58:59;5.90;99.90
7000;DHT22;3540;53.242;10.408;2023-02-28T13:09:40;6.90;99.90
7000;DHT22;3540;53.242;10.408;2023-02-28T13:12:16;7.00;99.90
7000;DHT22;3540;53.242;10.408;2023-02-28T13:14:42;6.60;99.90
7000;DHT22;3540;53.242;10.408;2023-02-28T13:25:01;6.60;99.90
7000;DHT22;3540;53.242;10.408;2023-02-28T13:27:38;6.30;99.90
7000;DHT22;3540;53.242;10.408;2023-02-28T13:33:31;6.20;99.90
7000;DHT22;3540;53.242;10.408;2023-02-28T13:38:36;6.60;99.90
7000;DHT22;3540;53.242;10.408;2023-02-28T14:00:23;6.50;99.90
7000;DHT22;3540;53.242;10.408;2023-02-28T14:06:29;6.30;99.90
7000;DHT22;3540;53.242;10.408;2023-02-28T14:11:35;6.30;99.90
7000;DHT22;3540;53.242;10.408;2023-02-28T14:14:02;6.50;99.90
7000;DHT22;3540;53.242;10.408;2023-02-28T14:16:40;6.60;99.90
7000;DHT22;3540;53.242;10.408;2023-02-28T14:19:22;6.80;99.90
7000;DHT22;3540;53.242;10.408;2023-02-28T14:27:24;6.50;99.90
7000;DHT22;3540;53.242;10.408;2023-02-28T14:37:42;6.30;99.90
7000;DHT22;3540;53.242;10.408;2023-02-28T14:40:24;6.20;99.90
7000;DHT22;3540;53.242;10.408;2023-02-28T14:43:03;6.20;99.90
7000;DHT22;3540;53.242;10.408;2023-02-28T14:45:34;6.30;99.90
7000;DHT22;3540;53.242;10.408;2023-02-28T14:48:05;6.30;99.90
7000;DHT22;3540;53.242;10.408;2023-02-28T14:50:36;6.30;99.90
7000;DHT22;3540;53.242;10.408;2023-02-28T14:53:03;6.30;99.90
7000;DHT22;3540;53.242;10.408;2023-02-28T14:55:35;6.30;99.90
7000;DHT22;3540;53.242;10.408;2023-02-28T14:58:04;6.40;99.90
7000;DHT22;3540;53.242;10.408;2023-02-28T15:00:33;6.30;99.90
7000;DHT22;3540;53.242;10.408;2023-02-28T15:03:13;6.00;99.90
7000;DHT22;3540;53.242;10.408;2023-02-28T15:05:42;6.00;99.90
7000;DHT22;3540;53.242;10.408;2023-02-28T15:08:16;6.10;99.90
7000;DHT22;3540;53.242;10.408;2023-02-28T15:11:03;6.00;99.90
7000;DHT22;3540;53.242;10.408;2023-02-28T15:13:44;6.10;99.90
7000;DHT22;3540;53.242;10.408;2023-02-28T15:16:13;6.20;99.90
7000;DHT22;3540;53.242;10.408;2023-02-28T15:21:39;6.20;99.90
7000;DHT22;3540;53.242;10.408;2023-02-28T15:24:23;6.20;99.90
7000;DHT22;3540;53.242;10.408;2023-02-28T15:26:57;6.00;99.90
7000;DHT22;3540;53.242;10.408;2023-02-28T15:29:25;5.90;99.90
7000;DHT22;3540;53.242;10.408;2023-02-28T15:32:05;5.90;99.90
7000;DHT22;3540;53.242;10.408;2023-02-28T15:34:41;5.80;99.90
7000;DHT22;3540;53.242;10.408;2023-02-28T15:37:45;5.80;99.90
7000;DHT22;3540;53.242;10.408;2023-02-28T15:40:15;5.80;99.90
7000;DHT22;3540;53.242;10.408;2023-02-28T15:42:42;5.90;99.90
7000;DHT22;3540;53.242;10.408;2023-02-28T15:45:32;5.90;99.90
7000;DHT22;3540;53.242;10.408;2023-02-28T15:48:00;5.70;99.90
7000;DHT22;3540;53.242;10.408;2023-02-28T15:50:29;5.70;99.90
7000;DHT22;3540;53.242;10.408;2023-02-28T15:52:55;5.70;99.90
7000;DHT22;3540;53.242;10.408;2023-02-28T15:55:23;5.70;99.90
7000;DHT22;3540;53.242;10.408;2023-02-28T15:57:53;5.60;99.90
7000;DHT22;3540;53.242;10.408;2023-02-28T16:00:22;5.60;99.90
7000;DHT22;3540;53.242;10.408;2023-02-28T16:02:48;5.50;99.90
7000;DHT22;3540;53.242;10.408;2023-02-28T16:07:54;5.50;99.90
7000;DHT22;3540;53.242;10.408;2023-02-28T16:10:21;5.40;99.90
7000;DHT22;3540;53.242;10.408;2023-02-28T16:12:50;5.40;99.90
7000;DHT22;3540;53.242;10.408;2023-02-28T16:15:20;5.40;99.90
7000;DHT22;3540;53.242;10.408;2023-02-28T16:17:47;5.30;99.90
7000;DHT22;3540;53.242;10.408;2023-02-28T16:20:19;5.20;99.90
7000;DHT22;3540;53.242;10.408;2023-02-28T16:22:45;5.20;99.90
7000;DHT22;3540;53.242;10.408;2023-02-28T16:25:15;5.10;99.90
7000;DHT22;3540;53.242;10.408;2023-02-28T16:27:43;5.00;99.90
7000;DHT22;3540;53.242;10.408;2023-02-28T16:30:24;5.00;99.90
7000;DHT22;3540;53.242;10.408;2023-02-28T16:32:51;5.00;99.90
7000;DHT22;3540;53.242;10.408;2023-02-28T16:35:18;4.90;99.90
7000;DHT22;3540;53.242;10.408;2023-02-28T16:37:44;4.90;99.90
7000;DHT22;3540;53.242;10.408;2023-02-28T16:40:15;4.80;99.90
7000;DHT22;3540;53.242;10.408;2023-02-28T16:42:41;4.80;99.90
7000;DHT22;3540;53.242;10.408;2023-02-28T16:45:16;4.70;99.90
7000;DHT22;3540;53.242;10.408;2023-02-28T16:47:43;4.70;99.90
7000;DHT22;3540;53.242;10.408;2023-02-28T16:50:23;4.60;99.90
7000;DHT22;3540;53.242;10.408;2023-02-28T16:52:50;4.50;99.90
7000;DHT22;3540;53.242;10.408;2023-02-28T16:55:17;4.40;99.90
7000;DHT22;3540;53.242;10.408;2023-02-28T16:57:44;4.30;99.90
7000;DHT22;3540;53.242;10.408;2023-02-28T17:00:13;4.20;99.90
7000;DHT22;3540;53.242;10.408;2023-02-28T17:02:39;4.10;99.90
7000;DHT22;3540;53.242;10.408;2023-02-28T17:05:05;4.00;99.90
7000;DHT22;3540;53.242;10.408;2023-02-28T17:07:32;3.90;99.90
7000;DHT22;3540;53.242;10.408;2023-02-28T17:09:58;3.80;99.90
7000;DHT22;3540;53.242;10.408;2023-02-28T17:12:24;3.70;99.90
7000;DHT22;3540;53.242;10.408;2023-02-28T17:14:50;3.60;99.90
7000;DHT22;3540;53.242;10.408;2023-02-28T17:17:18;3.40;99.90
7000;DHT22;3540;53.242;10.408;2023-02-28T17:19:45;3.30;99.90
7000;DHT22;3540;53.242;10.408;2023-02-28T17:22:10;3.10;99.90
7000;DHT22;3540;53.242;10.408;2023-02-28T17:24:36;3.00;99.90
7000;DHT22;3540;53.242;10.408;2023-02-28T17:27:02;2.90;99.90
7000;DHT22;3540;53.242;10.408;2023-02-28T17:29:27;2.80;99.90
7000;DHT22;3540;53.242;10.408;2023-02-28T17:31:53;2.70;1.00
7000;DHT22;3540;53.242;10.408;2023-02-28T17:34:19;2.50;1.00
7000;DHT22;3540;53.242;10.408;2023-02-28T17:36:50;2.40;1.00
7000;DHT22;3540;53.242;10.408;2023-02-28T17:39:17;2.30;1.00
7000;DHT22;3540;53.242;10.408;2023-02-28T17:41:53;2.20;1.00
7000;DHT22;3540;53.242;10.408;2023-02-28T17:44:19;2.10;1.00
7000;DHT22;3540;53.242;10.408;2023-02-28T17:46:46;2.00;1.00
7000;DHT22;3540;53.242;10.408;2023-02-28T17:49:12;1.80;1.00
7000;DHT22;3540;53.242;10.408;2023-02-28T17:51:37;1.70;1.00
7000;DHT22;3540;53.242;10.408;2023-02-28T17:54:03;1.70;1.00
7000;DHT22;3540;53.242;10.408;2023-02-28T17:56:29;1.60;1.00
7000;DHT22;3540;53.242;10.408;2023-02-28T17:58:55;1.50;1.00
7000;DHT22;3540;53.242;10.408;2023-02-28T18:01:21;1.40;1.00
7000;DHT22;3540;53.242;10.408;2023-02-28T18:03:48;1.30;1.00
7000;DHT22;3540;53.242;10.408;2023-02-28T18:06:21;1.20;1.00
7000;DHT22;3540;53.242;10.408;2023-02-28T18:08:47;1.10;1.00
7000;DHT22;3540;53.242;10.408;2023-02-28T18:11:14;1.10;1.00
7000;DHT22;3540;53.242;10.408;2023-02-28T18:13:50;1.00;1.00
7000;DHT22;3540;53.242;10.408;2023-02-28T18:16:17;0.90;1.00
7000;DHT22;3540;53.242;10.408;2023-02-28T18:18:44;0.80;1.00
7000;DHT22;3540;53.242;10.408;2023-02-28T18:21:12;0.70;1.00
7000;DHT22;3540;53.242;10.408;2023-02-28T18:23:38;0.60;1.00
7000;DHT22;3540;53.242;10.408;2023-02-28T18:26:12;0.60;1.00
7000;DHT22;3540;53.242;10.408;2023-02-28T18:28:38;0.50;1.00
7000;DHT22;3540;53.242;10.408;2023-02-28T18:31:08;0.40;1.00
7000;DHT22;3540;53.242;10.408;2023-02-28T18:33:34;0.40;1.00
7000;DHT22;3540;53.242;10.408;2023-02-28T18:36:00;0.30;1.00
7000;DHT22;3540;53.242;10.408;2023-02-28T18:38:26;0.20;1.00
7000;DHT22;3540;53.242;10.408;2023-02-28T18:40:56;0.20;1.00
7000;DHT22;3540;53.242;10.408;2023-02-28T18:43:22;0.10;1.00